Time;durP1;ratioP1;P1;durP2;ratioP2;P2;SDS_P1;SDS_P2;PMS_P1;PMS_P2;Temp;Humidity;BMP_temperature;BMP_pressure;BME280_temperature;BME280_humidity;BME280_pressure;Samples;Min_cycle;Max_cycle;Signal;HPM_P1;HPM_P2
2023/12/31 00:03:00;;;;;;;110.07;9.00;;;;;;;;;;6157731;23;20218;-93
2023/12/31 00:06:07;;;;;;;51.47;7.77;;;;;;;;;;6157891;23;20169;-91
2023/12/31 00:09:13;;;;;;;35.17;8.07;;;;;;;;;;6156929;23;20214;-94
2023/12/31 00:12:18;;;;;;;57.70;7.53;;;;;;;;;;6156931;23;20175;-95
2023/12/31 00:15:26;;;;;;;20.23;7.07;;;;;;;;;;6172241;23;20188;-94
2023/12/31 00:18:31;;;;;;;58.40;7.57;;;;;;;;;;6191080;22;20249;-92
2023/12/31 00:21:37;;;;;;;28.77;7.17;;;;;;;;;;6174333;23;20200;-94
2023/12/31 00:24:42;;;;;;;50.20;7.53;;;;;;;;;;6172004;23;20221;-93
2023/12/31 00:27:48;;;;;;;47.80;7.73;;;;;;;;;;6174498;23;20185;-94
2023/12/31 00:30:57;;;;;;;29.40;6.70;;;;;;;;;;6173713;23;20164;-92
2023/12/31 00:34:02;;;;;;;27.27;6.83;;;;;;;;;;6174630;23;20159;-94
2023/12/31 00:37:08;;;;;;;108.50;9.57;;;;;;;;;;6173630;23;20165;-94
2023/12/31 00:40:14;;;;;;;38.00;6.97;;;;;;;;;;6173896;23;20232;-93
2023/12/31 00:43:20;;;;;;;86.70;8.63;;;;;;;;;;6175416;23;20172;-93
2023/12/31 00:46:27;;;;;;;49.20;7.27;;;;;;;;;;6174031;23;20196;-94
2023/12/31 00:49:33;;;;;;;46.30;7.87;;;;;;;;;;6174646;23;20169;-94
2023/12/31 00:52:41;;;;;;;50.70;8.07;;;;;;;;;;6173546;23;20168;-94
2023/12/31 00:55:50;;;;;;;65.10;8.33;;;;;;;;;;6173892;23;20196;-94
2023/12/31 00:58:56;;;;;;;77.00;8.10;;;;;;;;;;6174217;23;20227;-93
2023/12/31 01:02:03;;;;;;;66.50;8.53;;;;;;;;;;6174305;23;20678;-94
2023/12/31 01:05:09;;;;;;;31.77;6.53;;;;;;;;;;6174177;23;20212;-94
2023/12/31 01:08:15;;;;;;;36.97;7.33;;;;;;;;;;6173915;23;20168;-93
2023/12/31 01:11:21;;;;;;;31.60;7.40;;;;;;;;;;6173789;23;20160;-93
2023/12/31 01:14:27;;;;;;;50.60;7.27;;;;;;;;;;6174218;23;20184;-93
2023/12/31 01:17:34;;;;;;;34.60;7.63;;;;;;;;;;6176317;23;20169;-94
2023/12/31 01:20:39;;;;;;;47.37;7.43;;;;;;;;;;6175292;23;20249;-95
2023/12/31 01:23:45;;;;;;;61.07;7.33;;;;;;;;;;6176271;23;20156;-93
2023/12/31 01:26:51;;;;;;;106.50;8.87;;;;;;;;;;6176401;23;20615;-94
2023/12/31 01:29:57;;;;;;;78.23;7.60;;;;;;;;;;6175830;23;20176;-92
2023/12/31 01:33:04;;;;;;;56.87;6.93;;;;;;;;;;6175984;23;20168;-92
2023/12/31 01:36:15;;;;;;;75.77;7.97;;;;;;;;;;6175142;23;20169;-93
2023/12/31 01:39:21;;;;;;;62.23;7.23;;;;;;;;;;6174778;23;20216;-93
2023/12/31 01:42:26;;;;;;;34.40;6.60;;;;;;;;;;6173976;23;20492;-94
2023/12/31 01:45:32;;;;;;;27.93;7.77;;;;;;;;;;6173541;23;20168;-94
2023/12/31 01:48:39;;;;;;;78.47;8.30;;;;;;;;;;6173079;23;20184;-93
2023/12/31 01:51:45;;;;;;;31.33;6.77;;;;;;;;;;6174502;23;20164;-93
2023/12/31 01:54:52;;;;;;;40.17;7.37;;;;;;;;;;6175673;23;20153;-92
2023/12/31 01:57:57;;;;;;;78.67;7.20;;;;;;;;;;6174755;23;20289;-93
2023/12/31 02:01:04;;;;;;;53.40;6.53;;;;;;;;;;6176223;23;20200;-93
2023/12/31 02:04:14;;;;;;;21.60;6.43;;;;;;;;;;6175836;23;20188;-93
2023/12/31 02:07:20;;;;;;;51.10;6.40;;;;;;;;;;6175060;23;20172;-94
2023/12/31 02:10:25;;;;;;;22.07;6.07;;;;;;;;;;6176163;23;20155;-93
2023/12/31 02:13:32;;;;;;;16.73;6.30;;;;;;;;;;6173968;23;20199;-94
2023/12/31 02:16:38;;;;;;;37.30;6.73;;;;;;;;;;6158310;23;20193;-92
2023/12/31 02:19:45;;;;;;;42.07;7.50;;;;;;;;;;6158305;23;20209;-92
2023/12/31 02:22:51;;;;;;;47.83;7.10;;;;;;;;;;6157859;23;20148;-93
2023/12/31 02:26:07;;;;;;;41.70;6.63;;;;;;;;;;6158617;23;20192;-94
2023/12/31 02:29:13;;;;;;;56.60;6.43;;;;;;;;;;6157457;23;20214;-93
2023/12/31 02:32:18;;;;;;;21.20;6.00;;;;;;;;;;6158757;23;20216;-93
2023/12/31 02:35:24;;;;;;;46.20;7.27;;;;;;;;;;6157815;23;20164;-92
2023/12/31 02:38:29;;;;;;;37.43;6.87;;;;;;;;;;6158393;23;20165;-93
2023/12/31 02:41:36;;;;;;;34.47;7.23;;;;;;;;;;6156975;23;20466;-93
2023/12/31 02:44:43;;;;;;;42.73;7.00;;;;;;;;;;6158137;23;20172;-93
2023/12/31 02:47:49;;;;;;;27.37;7.33;;;;;;;;;;6158296;23;20164;-93
2023/12/31 02:50:54;;;;;;;44.50;7.87;;;;;;;;;;6158117;23;20173;-93
2023/12/31 02:54:00;;;;;;;30.50;6.30;;;;;;;;;;6156456;23;20496;-92
2023/12/31 02:57:10;;;;;;;36.03;5.93;;;;;;;;;;6155988;23;20160;-94
2023/12/31 03:00:16;;;;;;;41.40;6.63;;;;;;;;;;6156925;23;20172;-94
2023/12/31 03:03:22;;;;;;;41.40;6.80;;;;;;;;;;6156076;23;20169;-92
2023/12/31 03:06:30;;;;;;;30.40;6.83;;;;;;;;;;6155179;23;20164;-93
2023/12/31 03:09:35;;;;;;;72.63;7.57;;;;;;;;;;6156435;23;20172;-93
2023/12/31 03:12:42;;;;;;;24.70;6.93;;;;;;;;;;6155127;23;20164;-93
2023/12/31 03:15:48;;;;;;;31.53;7.70;;;;;;;;;;6126821;23;20166;-92
2023/12/31 03:18:53;;;;;;;59.73;7.67;;;;;;;;;;6125974;23;20165;-94
2023/12/31 03:21:58;;;;;;;61.07;6.90;;;;;;;;;;6125845;23;20605;-93
2023/12/31 03:25:04;;;;;;;43.07;6.27;;;;;;;;;;6126567;23;20161;-92
2023/12/31 03:28:11;;;;;;;20.03;6.30;;;;;;;;;;6125926;23;20557;-92
2023/12/31 03:31:17;;;;;;;19.40;6.17;;;;;;;;;;6127290;23;20207;-94
2023/12/31 03:34:23;;;;;;;65.23;7.70;;;;;;;;;;6126585;23;20234;-93
2023/12/31 03:37:29;;;;;;;64.03;7.10;;;;;;;;;;6127756;23;20152;-94
2023/12/31 03:40:34;;;;;;;78.10;8.00;;;;;;;;;;6127060;23;20197;-93
2023/12/31 03:43:42;;;;;;;56.27;7.50;;;;;;;;;;6127417;23;20172;-94
2023/12/31 03:46:48;;;;;;;50.77;7.17;;;;;;;;;;6126746;23;20161;-93
2023/12/31 03:49:55;;;;;;;39.33;7.53;;;;;;;;;;6126857;23;20154;-94
2023/12/31 03:53:01;;;;;;;49.90;7.17;;;;;;;;;;6128624;23;20176;-93
2023/12/31 03:56:06;;;;;;;57.30;7.30;;;;;;;;;;6127306;23;20240;-92
2023/12/31 03:59:13;;;;;;;50.70;7.20;;;;;;;;;;6127951;23;20173;-93
2023/12/31 04:02:19;;;;;;;65.00;7.97;;;;;;;;;;6125682;23;20249;-92
2023/12/31 04:05:25;;;;;;;38.53;7.43;;;;;;;;;;6126679;23;20169;-94
2023/12/31 04:08:30;;;;;;;15.73;6.97;;;;;;;;;;6126278;23;20169;-93
2023/12/31 04:11:39;;;;;;;30.87;6.17;;;;;;;;;;6126205;23;20250;-94
2023/12/31 04:14:46;;;;;;;33.67;6.07;;;;;;;;;;6157604;23;20237;-94
2023/12/31 04:17:52;;;;;;;19.17;6.17;;;;;;;;;;6175895;23;20172;-93
2023/12/31 04:20:58;;;;;;;20.50;6.10;;;;;;;;;;6176302;23;20196;-95
2023/12/31 04:24:04;;;;;;;12.83;5.97;;;;;;;;;;6175823;23;20181;-93
2023/12/31 04:27:10;;;;;;;29.00;6.33;;;;;;;;;;6175910;23;20238;-94
2023/12/31 04:30:18;;;;;;;27.10;6.53;;;;;;;;;;6175121;23;20161;-92
2023/12/31 04:33:24;;;;;;;42.43;6.00;;;;;;;;;;6174302;23;20202;-94
2023/12/31 04:36:30;;;;;;;55.93;7.50;;;;;;;;;;6175558;23;20173;-93
2023/12/31 04:39:35;;;;;;;35.97;7.00;;;;;;;;;;6174766;23;20165;-93
2023/12/31 04:42:41;;;;;;;106.00;8.00;;;;;;;;;;6175886;23;20180;-93
2023/12/31 04:45:47;;;;;;;43.30;7.07;;;;;;;;;;6174875;23;20164;-95
2023/12/31 04:48:53;;;;;;;26.67;6.20;;;;;;;;;;6176239;23;20168;-94
2023/12/31 04:51:58;;;;;;;44.20;7.00;;;;;;;;;;6175161;23;20281;-96
2023/12/31 04:55:09;;;;;;;19.33;5.97;;;;;;;;;;6173667;23;20624;-95
2023/12/31 04:58:15;;;;;;;21.20;6.30;;;;;;;;;;6175743;23;20553;-94
2023/12/31 05:01:22;;;;;;;19.50;6.10;;;;;;;;;;6175410;23;20232;-93
2023/12/31 05:04:28;;;;;;;35.57;5.80;;;;;;;;;;6176217;23;20168;-93
2023/12/31 05:07:34;;;;;;;26.50;5.73;;;;;;;;;;6175528;23;20168;-96
2023/12/31 05:10:44;;;;;;;30.13;7.23;;;;;;;;;;6176004;23;20160;-95
2023/12/31 05:13:49;;;;;;;23.13;6.50;;;;;;;;;;6174797;23;20218;-94
2023/12/31 05:16:56;;;;;;;23.23;6.70;;;;;;;;;;6159725;23;20164;-94
2023/12/31 05:20:02;;;;;;;28.33;6.33;;;;;;;;;;6157260;23;20168;-93
2023/12/31 05:23:07;;;;;;;70.30;7.50;;;;;;;;;;6174006;23;20168;-95
2023/12/31 05:26:13;;;;;;;21.43;7.60;;;;;;;;;;6157628;23;20651;-95
2023/12/31 05:29:18;;;;;;;22.97;7.33;;;;;;;;;;6157236;23;20168;-94
2023/12/31 05:32:26;;;;;;;48.43;6.63;;;;;;;;;;6157618;23;20180;-95
2023/12/31 05:35:31;;;;;;;27.93;7.00;;;;;;;;;;6158003;23;20169;-95
2023/12/31 05:38:37;;;;;;;16.30;5.87;;;;;;;;;;6158086;23;20244;-94
2023/12/31 05:41:42;;;;;;;24.43;6.43;;;;;;;;;;6157315;23;20199;-95
2023/12/31 05:44:48;;;;;;;41.33;6.83;;;;;;;;;;6139756;23;20168;-95
2023/12/31 05:47:56;;;;;;;32.73;6.93;;;;;;;;;;6157724;23;20152;-95
2023/12/31 05:51:01;;;;;;;43.33;7.80;;;;;;;;;;6156892;23;20201;-94
2023/12/31 05:54:10;;;;;;;60.53;7.40;;;;;;;;;;6156962;23;20184;-93
2023/12/31 05:57:16;;;;;;;48.83;7.33;;;;;;;;;;6140509;23;20157;-93
2023/12/31 06:00:23;;;;;;;32.43;7.17;;;;;;;;;;6159080;23;20148;-94
2023/12/31 06:03:30;;;;;;;29.77;8.67;;;;;;;;;;6158482;23;20683;-94
2023/12/31 06:06:36;;;;;;;39.50;8.67;;;;;;;;;;6159792;23;20179;-95
2023/12/31 06:09:41;;;;;;;34.60;7.90;;;;;;;;;;6159785;23;20169;-93
2023/12/31 06:12:47;;;;;;;38.70;7.03;;;;;;;;;;6155936;23;20168;-95
2023/12/31 06:15:52;;;;;;;23.77;6.93;;;;;;;;;;6126280;23;20173;-93
2023/12/31 06:18:58;;;;;;;56.27;7.97;;;;;;;;;;6125831;23;20173;-95
2023/12/31 06:22:04;;;;;;;41.63;8.77;;;;;;;;;;6126822;23;20200;-94
2023/12/31 06:25:10;;;;;;;47.53;9.23;;;;;;;;;;6126573;23;20226;-95
2023/12/31 06:28:16;;;;;;;40.30;8.83;;;;;;;;;;6126121;23;20173;-93
2023/12/31 06:31:22;;;;;;;52.10;8.60;;;;;;;;;;6126616;23;20177;-93
2023/12/31 06:34:28;;;;;;;35.83;7.57;;;;;;;;;;6126907;23;20165;-94
2023/12/31 06:37:34;;;;;;;41.57;7.80;;;;;;;;;;6127190;23;20161;-93
2023/12/31 06:40:39;;;;;;;30.67;7.10;;;;;;;;;;6127967;23;20249;-93
2023/12/31 06:43:45;;;;;;;63.77;8.73;;;;;;;;;;6128374;23;20153;-94
2023/12/31 06:46:52;;;;;;;71.23;9.07;;;;;;;;;;6128191;23;20253;-94
2023/12/31 06:49:59;;;;;;;47.00;8.30;;;;;;;;;;6129373;23;20157;-93
2023/12/31 06:53:05;;;;;;;70.93;8.30;;;;;;;;;;6129273;23;20280;-92
2023/12/31 06:56:11;;;;;;;46.33;9.17;;;;;;;;;;6129390;23;20202;-94
2023/12/31 06:59:17;;;;;;;88.97;10.63;;;;;;;;;;6128939;23;20173;-94
2023/12/31 07:02:23;;;;;;;59.47;8.60;;;;;;;;;;6130366;23;20232;-93
2023/12/31 07:05:31;;;;;;;103.17;9.20;;;;;;;;;;6129307;23;20269;-94
2023/12/31 07:08:36;;;;;;;41.80;8.80;;;;;;;;;;6129247;23;20169;-93
2023/12/31 07:11:42;;;;;;;69.60;9.60;;;;;;;;;;6130007;23;20173;-93
2023/12/31 07:14:48;;;;;;;33.37;8.73;;;;;;;;;;6157284;23;20251;-94
2023/12/31 07:17:53;;;;;;;47.57;8.57;;;;;;;;;;6175442;23;20152;-92
2023/12/31 07:21:03;;;;;;;37.63;8.00;;;;;;;;;;6175984;23;20173;-94
2023/12/31 07:24:09;;;;;;;66.27;9.40;;;;;;;;;;6174393;23;20163;-94
2023/12/31 07:27:14;;;;;;;55.73;7.77;;;;;;;;;;6175700;23;20175;-94
2023/12/31 07:30:19;;;;;;;46.13;7.53;;;;;;;;;;6192850;22;20180;-93
2023/12/31 07:33:27;;;;;;;61.07;7.93;;;;;;;;;;6175498;23;20499;-93
2023/12/31 07:36:35;;;;;;;171.53;11.27;;;;;;;;;;6174834;23;20224;-93
2023/12/31 07:39:42;;;;;;;53.57;8.70;;;;;;;;;;6173277;23;20260;-93
2023/12/31 07:42:49;;;;;;;45.63;9.30;;;;;;;;;;6174363;23;20236;-94
2023/12/31 07:45:55;;;;;;;73.67;9.20;;;;;;;;;;6174356;23;20168;-92
2023/12/31 07:49:00;;;;;;;46.43;8.20;;;;;;;;;;6173642;23;20210;-92
2023/12/31 07:52:08;;;;;;;46.20;8.90;;;;;;;;;;6175133;23;20189;-92
2023/12/31 07:55:15;;;;;;;54.97;8.57;;;;;;;;;;6174533;23;20168;-94
2023/12/31 07:58:24;;;;;;;38.80;8.10;;;;;;;;;;6175926;23;20167;-93
2023/12/31 08:01:30;;;;;;;45.77;7.53;;;;;;;;;;6176033;23;20224;-94
2023/12/31 08:04:36;;;;;;;77.10;9.60;;;;;;;;;;6175263;23;20188;-93
2023/12/31 08:07:45;;;;;;;89.23;8.97;;;;;;;;;;6176074;23;20153;-93
2023/12/31 08:10:53;;;;;;;36.57;8.63;;;;;;;;;;6175439;23;20217;-95
2023/12/31 08:13:59;;;;;;;47.10;7.93;;;;;;;;;;6175323;23;20200;-94
2023/12/31 08:17:13;;;;;;;67.90;8.60;;;;;;;;;;6158009;23;20192;-93
2023/12/31 08:20:19;;;;;;;31.57;7.77;;;;;;;;;;6157727;23;20494;-93
2023/12/31 08:23:26;;;;;;;31.13;7.90;;;;;;;;;;6157939;23;20181;-94
2023/12/31 08:26:32;;;;;;;50.33;7.87;;;;;;;;;;6155375;23;20212;-92
2023/12/31 08:29:51;;;;;;;;;;;;;;;;;;;;;
2023/12/31 08:36:20;;;;;;;27.07;6.27;;;;;;;;;;6174689;23;20174;-92
2023/12/31 08:39:29;;;;;;;30.60;6.67;;;;;;;;;;6156473;23;20164;-91
2023/12/31 08:42:47;;;;;;;25.30;6.90;;;;;;;;;;6156660;23;20244;-94
2023/12/31 10:02:20;;;;;;;25.20;9.50;;;;;;;;;;6116108;23;20207;-92
2023/12/31 10:05:27;;;;;;;21.53;8.63;;;;;;;;;;6142378;23;20180;-90
2023/12/31 10:08:34;;;;;;;21.30;9.07;;;;;;;;;;6173564;23;20164;-92
2023/12/31 10:11:40;;;;;;;18.97;8.43;;;;;;;;;;6157591;23;20173;-93
2023/12/31 10:14:47;;;;;;;20.20;8.80;;;;;;;;;;6157564;23;20232;-94
2023/12/31 10:18:02;;;;;;;25.17;9.37;;;;;;;;;;6157290;23;20172;-95
2023/12/31 10:24:29;;;;;;;20.13;8.53;;;;;;;;;;6157939;23;20161;-93
2023/12/31 10:27:34;;;;;;;20.27;8.87;;;;;;;;;;6154040;23;20212;-92
2023/12/31 10:30:41;;;;;;;21.80;9.53;;;;;;;;;;6153106;23;20163;-94
2023/12/31 10:33:49;;;;;;;17.40;8.80;;;;;;;;;;6154969;23;20153;-89
2023/12/31 10:37:03;;;;;;;25.03;9.77;;;;;;;;;;6156248;23;20233;-93
2023/12/31 10:40:18;;;;;;;27.57;8.87;;;;;;;;;;6155203;23;20156;-92
2023/12/31 10:43:24;;;;;;;27.87;9.20;;;;;;;;;;6155610;23;20248;-90
2023/12/31 10:46:29;;;;;;;21.70;9.90;;;;;;;;;;6154931;23;20173;-91
2023/12/31 10:49:37;;;;;;;24.53;10.03;;;;;;;;;;6153437;23;20172;-91
2023/12/31 10:52:43;;;;;;;23.83;9.83;;;;;;;;;;6154383;23;20169;-92
2023/12/31 10:55:49;;;;;;;30.53;12.40;;;;;;;;;;6154287;23;20156;-93
2023/12/31 10:58:55;;;;;;;29.43;11.23;;;;;;;;;;6154646;23;20296;-92
2023/12/31 11:02:01;;;;;;;38.93;10.90;;;;;;;;;;6152418;23;20195;-95
2023/12/31 11:05:09;;;;;;;26.70;10.77;;;;;;;;;;6154129;23;20169;-90
2023/12/31 11:08:16;;;;;;;33.23;10.77;;;;;;;;;;6156839;23;20179;-90
2023/12/31 11:11:22;;;;;;;24.77;10.15;;;;;;;;;;6155376;23;20284;-92
2023/12/31 11:14:31;;;;;;;24.60;9.57;;;;;;;;;;6152665;23;20303;-91
2023/12/31 11:17:50;;;;;;;18.77;8.73;;;;;;;;;;6152862;23;20366;-93
2023/12/31 11:21:03;;;;;;;17.48;7.97;;;;;;;;;;6154798;23;20168;-91
2023/12/31 11:24:14;;;;;;;15.90;7.68;;;;;;;;;;6156433;23;20183;-92
2023/12/31 11:27:20;;;;;;;15.32;7.50;;;;;;;;;;6157862;23;20168;-92
2023/12/31 11:30:46;;;;;;;15.43;8.30;;;;;;;;;;6157153;23;20234;-92
2023/12/31 11:33:51;;;;;;;14.07;7.63;;;;;;;;;;6155307;23;20300;-92
2023/12/31 11:37:02;;;;;;;15.10;7.20;;;;;;;;;;6156705;23;20484;-93
2023/12/31 11:40:09;;;;;;;11.97;7.00;;;;;;;;;;6155891;23;20169;-91
2023/12/31 11:43:15;;;;;;;12.27;6.53;;;;;;;;;;6156541;23;20200;-92
2023/12/31 11:46:34;;;;;;;13.90;7.03;;;;;;;;;;6156818;23;20194;-92
2023/12/31 11:49:41;;;;;;;14.38;7.35;;;;;;;;;;6156721;23;20181;-93
2023/12/31 11:52:50;;;;;;;13.02;7.32;;;;;;;;;;6157233;23;20668;-93
2023/12/31 11:55:58;;;;;;;14.40;7.13;;;;;;;;;;6156529;23;20153;-91
2023/12/31 11:59:03;;;;;;;18.38;8.90;;;;;;;;;;6157329;23;20169;-93
2023/12/31 12:02:09;;;;;;;14.88;7.07;;;;;;;;;;6157248;23;20240;-91
2023/12/31 12:05:15;;;;;;;16.73;8.05;;;;;;;;;;6156525;23;20587;-91
2023/12/31 12:08:23;;;;;;;15.57;7.63;;;;;;;;;;6156738;23;20498;-88
2023/12/31 12:11:29;;;;;;;16.90;7.38;;;;;;;;;;6158606;23;20243;-93
2023/12/31 12:14:34;;;;;;;14.93;6.95;;;;;;;;;;6156332;23;20333;-90
2023/12/31 12:17:40;;;;;;;19.42;8.77;;;;;;;;;;6156971;23;20193;-93
2023/12/31 12:20:47;;;;;;;16.35;7.10;;;;;;;;;;6156943;23;20165;-94
2023/12/31 12:23:55;;;;;;;15.75;6.93;;;;;;;;;;6156745;23;20249;-90
2023/12/31 12:27:04;;;;;;;14.82;7.18;;;;;;;;;;6175360;23;20220;-92
2023/12/31 12:30:11;;;;;;;15.48;8.02;;;;;;;;;;6157323;23;20172;-93
2023/12/31 12:33:17;;;;;;;15.48;6.75;;;;;;;;;;6156672;23;20169;-93
2023/12/31 12:36:27;;;;;;;13.70;6.82;;;;;;;;;;6159161;23;20160;-91
2023/12/31 12:39:39;;;;;;;19.33;7.80;;;;;;;;;;6159344;23;20176;-91
2023/12/31 12:42:47;;;;;;;18.35;8.63;;;;;;;;;;6156556;23;20211;-92
2023/12/31 12:46:10;;;;;;;20.38;7.70;;;;;;;;;;6155822;23;20168;-90
2023/12/31 12:49:15;;;;;;;14.43;7.45;;;;;;;;;;6156435;23;20173;-90
2023/12/31 12:52:21;;;;;;;17.42;8.93;;;;;;;;;;6157826;23;20159;-90
2023/12/31 12:55:28;;;;;;;21.15;10.68;;;;;;;;;;6158130;23;20212;-93
2023/12/31 12:58:33;;;;;;;31.83;25.02;;;;;;;;;;6158213;23;20185;-91
2023/12/31 13:01:39;;;;;;;17.83;8.27;;;;;;;;;;6156111;23;20172;-92
2023/12/31 13:04:45;;;;;;;17.17;7.95;;;;;;;;;;6155666;23;20285;-91
2023/12/31 13:14:32;;;;;;;20.13;9.85;;;;;;;;;;6157764;23;20208;-93
2023/12/31 13:17:37;;;;;;;19.73;10.00;;;;;;;;;;6155412;23;20152;-90
2023/12/31 13:20:43;;;;;;;22.45;9.18;;;;;;;;;;6156729;23;20213;-90
2023/12/31 13:23:50;;;;;;;19.33;9.48;;;;;;;;;;6157257;23;20195;-91
2023/12/31 13:30:31;;;;;;;19.13;9.07;;;;;;;;;;6157192;23;20217;-93
2023/12/31 13:33:36;;;;;;;18.48;8.85;;;;;;;;;;6158624;23;20156;-90
2023/12/31 13:36:49;;;;;;;17.55;8.82;;;;;;;;;;6175821;23;20164;-94
2023/12/31 13:39:54;;;;;;;18.48;8.60;;;;;;;;;;6157266;23;20156;-93
2023/12/31 13:43:00;;;;;;;17.90;9.18;;;;;;;;;;6156244;23;20241;-90
2023/12/31 13:46:07;;;;;;;18.83;8.55;;;;;;;;;;6155746;23;20185;-93
2023/12/31 13:49:12;;;;;;;16.00;8.00;;;;;;;;;;6155975;23;20152;-92
2023/12/31 13:52:18;;;;;;;18.80;8.57;;;;;;;;;;6157988;23;20168;-92
2023/12/31 13:55:25;;;;;;;21.10;9.07;;;;;;;;;;6158352;23;20189;-92
2023/12/31 13:58:30;;;;;;;18.42;8.82;;;;;;;;;;6158794;23;20181;-90
2023/12/31 14:01:38;;;;;;;23.02;8.90;;;;;;;;;;6155843;23;20624;-92
2023/12/31 14:04:46;;;;;;;29.50;12.95;;;;;;;;;;6158161;23;20636;-91
2023/12/31 14:07:53;;;;;;;21.73;9.75;;;;;;;;;;6154438;23;20173;-92
2023/12/31 14:10:58;;;;;;;20.38;9.27;;;;;;;;;;6154666;23;20168;-91
2023/12/31 14:14:04;;;;;;;24.48;10.05;;;;;;;;;;6155435;23;20157;-93
2023/12/31 14:17:11;;;;;;;19.33;9.55;;;;;;;;;;6155311;23;20260;-93
2023/12/31 14:20:17;;;;;;;22.55;9.63;;;;;;;;;;6154499;23;20180;-90
2023/12/31 14:23:22;;;;;;;20.13;9.43;;;;;;;;;;6155016;23;20199;-92
2023/12/31 14:26:28;;;;;;;21.30;9.95;;;;;;;;;;6154042;23;20173;-92
2023/12/31 14:29:33;;;;;;;22.67;10.15;;;;;;;;;;6156512;23;20171;-91
2023/12/31 14:32:43;;;;;;;22.00;10.45;;;;;;;;;;6154922;23;20160;-91
2023/12/31 14:35:49;;;;;;;22.05;10.27;;;;;;;;;;6154548;23;20177;-92
2023/12/31 14:38:55;;;;;;;20.20;9.75;;;;;;;;;;6156216;23;20153;-92
2023/12/31 14:42:00;;;;;;;20.38;9.88;;;;;;;;;;6154484;23;20217;-90
2023/12/31 14:45:11;;;;;;;20.90;9.97;;;;;;;;;;6154348;23;20192;-94
2023/12/31 14:48:18;;;;;;;22.85;10.43;;;;;;;;;;6155832;23;20173;-92
2023/12/31 14:51:24;;;;;;;22.30;9.97;;;;;;;;;;6154815;23;20197;-94
2023/12/31 14:54:31;;;;;;;21.63;9.40;;;;;;;;;;6155670;23;20175;-93
2023/12/31 14:57:41;;;;;;;23.57;9.70;;;;;;;;;;6155964;23;20160;-93
2023/12/31 15:00:47;;;;;;;24.43;10.00;;;;;;;;;;6158023;23;20198;-91
2023/12/31 15:03:54;;;;;;;23.83;10.23;;;;;;;;;;6172486;23;20196;-92
2023/12/31 15:07:00;;;;;;;20.73;9.70;;;;;;;;;;6171901;23;20213;-93
2023/12/31 15:10:08;;;;;;;21.65;10.02;;;;;;;;;;6171164;23;20191;-92
2023/12/31 15:13:23;;;;;;;31.00;12.47;;;;;;;;;;6172889;23;20169;-93
2023/12/31 15:16:28;;;;;;;23.08;11.02;;;;;;;;;;6169361;23;20156;-90
2023/12/31 15:19:36;;;;;;;26.40;10.87;;;;;;;;;;6170051;23;20247;-91
2023/12/31 15:22:42;;;;;;;26.10;11.50;;;;;;;;;;6170665;23;20163;-91
2023/12/31 15:25:50;;;;;;;31.07;12.80;;;;;;;;;;6171774;23;20204;-91
2023/12/31 15:28:56;;;;;;;36.67;14.97;;;;;;;;;;6171886;23;20320;-94
2023/12/31 15:32:03;;;;;;;32.40;13.70;;;;;;;;;;6171525;23;20175;-90
2023/12/31 15:35:15;;;;;;;36.60;13.90;;;;;;;;;;6175120;23;20189;-92
2023/12/31 15:38:21;;;;;;;37.77;15.37;;;;;;;;;;6172290;23;20153;-91
2023/12/31 15:41:28;;;;;;;33.20;14.90;;;;;;;;;;6173843;23;20161;-92
2023/12/31 15:44:36;;;;;;;55.90;23.17;;;;;;;;;;6174347;23;20211;-92
2023/12/31 15:47:42;;;;;;;38.73;15.63;;;;;;;;;;6174344;23;20163;-90
2023/12/31 15:50:49;;;;;;;30.87;12.80;;;;;;;;;;6172857;23;20600;-94
2023/12/31 15:53:55;;;;;;;40.40;15.67;;;;;;;;;;6172182;23;20177;-92
2023/12/31 15:57:01;;;;;;;40.70;17.27;;;;;;;;;;6173120;23;20169;-93
2023/12/31 16:00:07;;;;;;;34.27;16.00;;;;;;;;;;6173909;23;20256;-91
2023/12/31 16:03:17;;;;;;;48.37;19.50;;;;;;;;;;6173445;23;20213;-89
2023/12/31 16:06:26;;;;;;;48.50;18.00;;;;;;;;;;6156843;23;20225;-92
2023/12/31 16:09:31;;;;;;;43.27;16.70;;;;;;;;;;6155731;23;20364;-92
2023/12/31 16:12:37;;;;;;;42.50;18.27;;;;;;;;;;6158438;23;20218;-92
2023/12/31 16:15:44;;;;;;;40.53;17.47;;;;;;;;;;6156601;23;20176;-92
2023/12/31 16:18:51;;;;;;;44.97;20.23;;;;;;;;;;6156381;23;20204;-92
2023/12/31 16:22:03;;;;;;;42.27;19.37;;;;;;;;;;6155949;23;20168;-90
2023/12/31 16:25:08;;;;;;;42.33;19.23;;;;;;;;;;6157519;23;20469;-89
2023/12/31 16:28:18;;;;;;;36.27;16.03;;;;;;;;;;6157116;23;20606;-90
2023/12/31 16:31:24;;;;;;;42.93;16.10;;;;;;;;;;6156091;23;20316;-92
2023/12/31 16:34:29;;;;;;;41.23;17.57;;;;;;;;;;6158108;23;20198;-91
2023/12/31 16:37:37;;;;;;;42.27;16.27;;;;;;;;;;6157437;23;20185;-92
2023/12/31 16:40:42;;;;;;;36.87;14.93;;;;;;;;;;6157360;23;20168;-91
2023/12/31 16:43:48;;;;;;;41.57;16.00;;;;;;;;;;6156445;23;20192;-92
2023/12/31 16:46:55;;;;;;;43.10;15.57;;;;;;;;;;6157293;23;20212;-94
2023/12/31 16:50:01;;;;;;;39.77;16.03;;;;;;;;;;6157499;23;20157;-91
2023/12/31 16:53:10;;;;;;;40.73;16.07;;;;;;;;;;6156252;23;20168;-91
2023/12/31 16:56:16;;;;;;;44.97;17.53;;;;;;;;;;6156024;23;20172;-93
2023/12/31 16:59:22;;;;;;;47.50;17.17;;;;;;;;;;6154774;23;20168;-91
2023/12/31 17:02:27;;;;;;;45.87;19.00;;;;;;;;;;6155324;23;20191;-91
2023/12/31 17:05:34;;;;;;;40.53;16.83;;;;;;;;;;6156798;23;20188;-92
2023/12/31 17:08:44;;;;;;;45.73;17.87;;;;;;;;;;6154123;23;20176;-90
2023/12/31 17:11:50;;;;;;;40.30;17.67;;;;;;;;;;6171323;23;20156;-94
2023/12/31 17:14:55;;;;;;;45.03;18.47;;;;;;;;;;6155208;23;20689;-91
2023/12/31 17:18:00;;;;;;;45.60;17.80;;;;;;;;;;6155757;23;20254;-89
2023/12/31 17:21:12;;;;;;;39.80;16.47;;;;;;;;;;6154510;23;20168;-91
2023/12/31 17:28:29;;;;;;;;;;;;;;;;;;;;;
2023/12/31 17:31:38;;;;;;;42.13;16.30;;;;;;;;;;6154018;23;20588;-91
2023/12/31 17:34:43;;;;;;;44.73;16.17;;;;;;;;;;6153691;23;20252;-92
2023/12/31 17:37:50;;;;;;;41.37;16.10;;;;;;;;;;6154162;23;20167;-91
2023/12/31 17:40:58;;;;;;;43.97;17.13;;;;;;;;;;6154614;23;20164;-92
2023/12/31 17:44:04;;;;;;;44.17;15.97;;;;;;;;;;6156995;23;20176;-93
2023/12/31 17:47:09;;;;;;;48.73;17.87;;;;;;;;;;6154145;23;20245;-90
2023/12/31 17:50:15;;;;;;;45.00;17.23;;;;;;;;;;6157048;23;20236;-92
2023/12/31 17:53:20;;;;;;;48.67;17.23;;;;;;;;;;6154990;23;20173;-90
2023/12/31 17:56:27;;;;;;;51.23;17.73;;;;;;;;;;6155563;23;20200;-90
2023/12/31 17:59:34;;;;;;;48.77;18.77;;;;;;;;;;6155063;23;20154;-94
2023/12/31 18:02:42;;;;;;;49.30;18.77;;;;;;;;;;6158280;23;20192;-92
2023/12/31 18:05:47;;;;;;;51.17;17.87;;;;;;;;;;6174001;23;20200;-91
2023/12/31 18:08:52;;;;;;;51.30;17.80;;;;;;;;;;6173843;23;20171;-90
2023/12/31 18:12:00;;;;;;;53.93;18.17;;;;;;;;;;6174933;23;20145;-91
2023/12/31 18:15:07;;;;;;;52.80;18.90;;;;;;;;;;6174417;23;20520;-91
2023/12/31 18:18:13;;;;;;;48.37;17.47;;;;;;;;;;6174022;23;20189;-92
2023/12/31 18:21:21;;;;;;;45.47;17.80;;;;;;;;;;6174849;23;20535;-93
2023/12/31 18:24:26;;;;;;;55.03;18.47;;;;;;;;;;6171653;23;20204;-90
2023/12/31 18:27:33;;;;;;;62.80;20.07;;;;;;;;;;6172500;23;20549;-92
2023/12/31 18:30:39;;;;;;;52.40;17.90;;;;;;;;;;6173074;23;20168;-90
2023/12/31 18:33:44;;;;;;;51.83;18.17;;;;;;;;;;6174299;23;20208;-91
2023/12/31 18:36:51;;;;;;;52.70;18.13;;;;;;;;;;6175469;23;20171;-92
2023/12/31 18:39:57;;;;;;;51.23;18.50;;;;;;;;;;6175498;23;20177;-92
2023/12/31 18:43:05;;;;;;;53.40;19.27;;;;;;;;;;6174372;23;20176;-91
2023/12/31 18:46:10;;;;;;;62.57;24.47;;;;;;;;;;6171640;23;20275;-92
2023/12/31 18:49:15;;;;;;;69.47;25.40;;;;;;;;;;6171768;23;20221;-92
2023/12/31 18:52:20;;;;;;;74.27;25.33;;;;;;;;;;6172659;23;20612;-92
2023/12/31 18:55:26;;;;;;;59.50;20.97;;;;;;;;;;6173007;23;20152;-91
2023/12/31 18:58:33;;;;;;;64.40;21.07;;;;;;;;;;6172561;23;20241;-89
2023/12/31 19:01:39;;;;;;;72.07;23.93;;;;;;;;;;6171775;23;20620;-90
2023/12/31 19:04:44;;;;;;;63.30;22.30;;;;;;;;;;6156667;23;20196;-92
2023/12/31 19:07:51;;;;;;;62.53;21.93;;;;;;;;;;6154248;23;20169;-93
2023/12/31 19:11:00;;;;;;;69.00;23.47;;;;;;;;;;6154645;23;20169;-93
2023/12/31 19:14:08;;;;;;;59.23;21.67;;;;;;;;;;6154003;23;20169;-94
2023/12/31 19:17:14;;;;;;;58.97;21.40;;;;;;;;;;6154504;23;20169;-92
2023/12/31 19:20:20;;;;;;;55.20;20.13;;;;;;;;;;6154636;23;20168;-89
2023/12/31 19:23:25;;;;;;;60.67;21.83;;;;;;;;;;6155681;23;20165;-91
2023/12/31 19:26:32;;;;;;;57.43;21.17;;;;;;;;;;6174755;23;20267;-93
2023/12/31 19:29:40;;;;;;;55.77;20.90;;;;;;;;;;6156345;23;20172;-92
2023/12/31 19:32:45;;;;;;;54.33;21.93;;;;;;;;;;6156088;23;20168;-92
2023/12/31 19:35:51;;;;;;;54.17;20.30;;;;;;;;;;6156112;23;20168;-92
2023/12/31 19:38:57;;;;;;;54.63;20.23;;;;;;;;;;6155411;23;20168;-91
2023/12/31 19:42:02;;;;;;;52.07;18.50;;;;;;;;;;6155564;23;20188;-92
2023/12/31 19:45:10;;;;;;;51.47;20.13;;;;;;;;;;6155649;23;20220;-92
2023/12/31 19:48:16;;;;;;;51.13;19.70;;;;;;;;;;6155381;23;20228;-91
2023/12/31 19:51:25;;;;;;;51.17;19.70;;;;;;;;;;6152715;23;20169;-90
2023/12/31 19:54:31;;;;;;;48.73;18.97;;;;;;;;;;6154629;23;20189;-90
2023/12/31 19:57:39;;;;;;;55.20;18.97;;;;;;;;;;6154621;23;20153;-94
2023/12/31 20:00:48;;;;;;;50.83;20.23;;;;;;;;;;6154907;23;20601;-93